X  Sluiten METAR luchtvaart weer gegevens      EDDG Münster Osnabrück Airport
Temperatuur
26°C Temperatuur
15°C Dauwpunt
51% Vochtigheid



Wind
8 KM/U
5 MPH
2 M/S
4 KTS



190°
Zuid
Huidig weer

Buien, Regen Buien, Regen
Luchtdruk 1004.92 (hPa) - 29.68 (inHg)
Zicht 6.2 (mijl) - 10 (km)
Vliegveld
Vliegveld code EDDG

Locatie : Münster Osnabrück Airport
Afstand: 45 (km)

Metar:
EDDG 142050Z AUTO 19004KT 140V220 9999 SHRA FEW///CB 26/15 Q1005 BECMG NSW

Tijd: 14-08-2022 22:50 CEST